Terminal Aerodrome Forecast
Issued by NWS

Home | Current Version | Previous Version | Text Only | Print | Product List | Glossary On
Versions: 1 2 3 4 5 6 7 8 9 10 11 12 13 14 15 16 17 18 19 20 21 22 23
000
FTUS44 KLIX 291100
TAFHDC
TAF
KHDC 291120Z 2912/3012 01005KT 3SM BR OVC003
     FM291500 36004KT P6SM OVC008
     FM291800 VRB03KT P6SM OVC015
     FM300300 35005KT P6SM OVC010
     FM300700 35005KT P6SM OVC003
      AMD NOT SKED=

USA.gov is the U.S. government's official web portal to all federal, state and local government web resources and services.